Time;durP1;ratioP1;P1;durP2;ratioP2;P2;SDS_P1;SDS_P2;PMS_P1;PMS_P2;Temp;Humidity;BMP_temperature;BMP_pressure;BME280_temperature;BME280_humidity;BME280_pressure;Samples;Min_cycle;Max_cycle;Signal;HPM_P1;HPM_P2
2023/04/09 00:02:15;;;;;;;65.83;45.40;;;;;;;8.71;100.00;103080.63;4990965;28;20193;-71
2023/04/09 00:04:40;;;;;;;56.87;40.77;;;;;;;9.18;100.00;103158.66;4998277;28;20185;-72
2023/04/09 00:07:05;;;;;;;53.60;41.97;;;;;;;8.75;100.00;103093.59;4997302;28;20838;-71
2023/04/09 00:09:31;;;;;;;55.53;40.23;;;;;;;9.20;100.00;103154.88;4993553;28;20201;-71
2023/04/09 00:11:57;;;;;;;50.03;37.83;;;;;;;9.34;100.00;103168.88;4997400;28;20598;-72
2023/04/09 00:14:22;;;;;;;52.80;39.00;;;;;;;9.36;100.00;103157.06;4980508;28;20182;-72
2023/04/09 00:16:48;;;;;;;48.67;38.60;;;;;;;8.42;100.00;103051.00;4980083;28;20711;-71
2023/04/09 00:19:14;;;;;;;56.63;41.30;;;;;;;9.29;100.00;103153.22;4963303;28;20508;-72
2023/04/09 00:21:39;;;;;;;55.97;41.63;;;;;;;8.83;100.00;103082.25;4993745;28;20193;-72
2023/04/09 00:24:05;;;;;;;53.40;39.53;;;;;;;8.70;100.00;103090.47;4996277;28;20208;-71
2023/04/09 00:26:30;;;;;;;51.40;38.43;;;;;;;8.85;100.00;103103.50;4993293;28;20263;-71
2023/04/09 00:28:56;;;;;;;50.43;37.33;;;;;;;9.11;100.00;103161.00;4993476;28;20173;-71
2023/04/09 00:31:21;;;;;;;52.70;37.97;;;;;;;8.85;100.00;103157.88;4989933;28;20744;-72
2023/04/09 00:33:47;;;;;;;69.57;44.13;;;;;;;9.07;100.00;103131.97;4974510;28;20177;-71
2023/04/09 00:36:12;;;;;;;69.40;47.03;;;;;;;9.33;100.00;103159.16;4994854;28;20189;-71
2023/04/09 00:38:38;;;;;;;62.60;44.33;;;;;;;8.73;100.00;103092.03;4994278;28;20846;-72
2023/04/09 00:41:03;;;;;;;58.00;40.10;;;;;;;9.08;100.00;103104.19;4993454;28;20201;-71
2023/04/09 00:43:29;;;;;;;55.17;39.70;;;;;;;9.08;100.00;103158.59;4982341;28;20385;-71
2023/04/09 00:45:54;;;;;;;60.00;39.00;;;;;;;8.73;100.00;103084.84;4991099;28;20193;-71
2023/04/09 00:48:20;;;;;;;51.90;36.70;;;;;;;9.17;100.00;103114.09;4974797;28;20349;-71
2023/04/09 00:50:46;;;;;;;49.50;36.97;;;;;;;8.70;100.00;103073.56;4976059;28;20252;-71
2023/04/09 00:53:11;;;;;;;47.50;35.97;;;;;;;9.36;100.00;103151.69;4990910;28;21208;-71
2023/04/09 00:55:41;;;;;;;47.17;36.13;;;;;;;9.27;100.00;103158.69;4974859;28;20188;-71
2023/04/09 00:58:07;;;;;;;50.67;34.97;;;;;;;8.95;100.00;103077.66;4993437;28;20180;-71
2023/04/09 01:00:33;;;;;;;48.70;36.60;;;;;;;8.47;100.00;103030.06;4992518;28;20457;-71
2023/04/09 01:02:59;;;;;;;58.80;40.90;;;;;;;8.63;100.00;103075.94;4974624;28;20190;-71
2023/04/09 01:05:53;;;;;;;65.17;43.80;;;;;;;9.34;100.00;103155.47;4962956;28;20213;-71
2023/04/09 01:08:26;;;;;;;69.10;46.27;;;;;;;8.80;100.00;103064.63;4988301;28;20970;-72
2023/04/09 01:11:06;;;;;;;76.60;47.40;;;;;;;9.16;100.00;103156.09;4988809;28;20465;-72
2023/04/09 01:13:46;;;;;;;67.83;46.30;;;;;;;8.58;100.00;103065.63;4982444;28;20497;-72
2023/04/09 01:16:17;;;;;;;63.60;44.17;;;;;;;8.28;100.00;103002.19;4984704;28;20960;-72
2023/04/09 01:19:11;;;;;;;73.37;49.83;;;;;;;8.77;100.00;103074.75;4982535;28;20452;-71
2023/04/09 01:21:39;;;;;;;69.23;43.23;;;;;;;8.82;100.00;103080.53;4981994;28;20498;-72
2023/04/09 01:24:26;;;;;;;59.70;40.70;;;;;;;8.72;100.00;103072.47;4970206;28;20436;-71
2023/04/09 01:27:04;;;;;;;63.20;41.07;;;;;;;9.35;100.00;103159.88;4979984;28;21076;-71
2023/04/09 01:29:32;;;;;;;55.00;37.63;;;;;;;8.89;100.00;103081.72;4980119;28;20456;-72
2023/04/09 01:31:59;;;;;;;56.50;35.87;;;;;;;9.34;100.00;103147.44;4978150;28;20444;-71
2023/04/09 01:34:27;;;;;;;51.03;34.33;;;;;;;8.93;100.00;103084.97;4980393;28;20440;-71
2023/04/09 01:36:56;;;;;;;54.57;38.00;;;;;;;9.20;100.00;103143.28;4988326;28;20444;-71
2023/04/09 01:39:22;;;;;;;57.17;37.97;;;;;;;8.72;100.00;103069.78;4982758;28;20503;-71
2023/04/09 01:41:49;;;;;;;49.03;38.40;;;;;;;9.15;100.00;103145.53;4982648;28;20437;-72
2023/04/09 01:44:16;;;;;;;48.83;35.53;;;;;;;9.04;100.00;103152.66;4968197;28;20525;-71
2023/04/09 01:46:42;;;;;;;41.43;32.20;;;;;;;8.40;100.00;103044.97;4982100;28;20457;-71
2023/04/09 01:49:09;;;;;;;43.40;32.93;;;;;;;8.98;100.00;103122.91;4964061;28;20443;-71
2023/04/09 01:51:36;;;;;;;42.30;33.27;;;;;;;9.17;100.00;103155.13;4983431;28;20584;-71
2023/04/09 01:54:02;;;;;;;43.03;33.50;;;;;;;8.18;100.00;102974.53;4984511;28;20556;-71
2023/04/09 01:56:39;;;;;;;41.80;32.30;;;;;;;8.82;100.00;103094.78;4967858;28;20484;-71
2023/04/09 01:59:04;;;;;;;43.23;32.73;;;;;;;9.14;100.00;103151.84;4985218;28;20436;-71
2023/04/09 02:01:40;;;;;;;52.13;37.57;;;;;;;8.55;100.00;103081.94;4982341;28;20992;-71
2023/04/09 02:04:16;;;;;;;55.40;39.03;;;;;;;9.00;100.00;103140.53;4966536;28;20186;-72
2023/04/09 02:06:52;;;;;;;64.43;42.60;;;;;;;9.04;100.00;103163.38;4984909;28;20464;-72
2023/04/09 02:09:19;;;;;;;56.77;40.30;;;;;;;8.89;100.00;103134.41;4979531;28;20440;-71
2023/04/09 02:11:46;;;;;;;50.87;37.90;;;;;;;8.97;100.00;103142.63;4978084;28;20438;-71
2023/04/09 02:14:13;;;;;;;49.70;37.63;;;;;;;8.40;100.00;103050.31;4977368;28;20439;-71
2023/04/09 02:16:39;;;;;;;54.30;37.97;;;;;;;8.58;100.00;103105.75;4978431;28;20436;-71
2023/04/09 02:19:05;;;;;;;48.83;37.13;;;;;;;9.07;100.00;103175.63;4986220;28;20446;-71
2023/04/09 02:21:31;;;;;;;51.77;38.93;;;;;;;8.58;100.00;103080.81;4979469;28;20219;-71
2023/04/09 02:23:56;;;;;;;44.77;35.53;;;;;;;8.78;100.00;103135.31;4977993;28;20291;-71
2023/04/09 02:26:23;;;;;;;51.90;37.77;;;;;;;8.62;100.00;103074.25;4964115;28;20596;-72
2023/04/09 02:28:48;;;;;;;52.00;38.97;;;;;;;8.68;100.00;103088.91;4962040;28;20188;-71
2023/04/09 02:31:14;;;;;;;54.57;41.33;;;;;;;8.73;100.00;103113.44;4979809;28;20463;-71
2023/04/09 02:33:39;;;;;;;55.30;39.13;;;;;;;9.01;100.00;103181.53;4983920;28;20199;-71
2023/04/09 02:36:05;;;;;;;52.17;40.00;;;;;;;8.74;100.00;103113.31;4979404;28;20710;-71
2023/04/09 02:38:31;;;;;;;59.17;41.13;;;;;;;8.74;100.00;103107.13;4992130;28;20189;-71
2023/04/09 02:40:57;;;;;;;61.93;43.00;;;;;;;8.52;100.00;103102.75;4991905;28;21251;-71
2023/04/09 02:43:22;;;;;;;72.20;50.83;;;;;;;9.14;100.00;103179.50;4994194;28;20661;-71
2023/04/09 02:45:48;;;;;;;68.90;49.67;;;;;;;8.76;100.00;103116.69;4995473;28;20193;-71
2023/04/09 02:48:13;;;;;;;78.23;55.00;;;;;;;8.68;100.00;103103.16;4995443;28;20212;-71
2023/04/09 02:50:39;;;;;;;75.27;55.60;;;;;;;9.12;100.00;103173.44;4993543;28;20676;-71
2023/04/09 02:53:05;;;;;;;81.77;60.57;;;;;;;8.89;100.00;103134.41;4999024;28;20185;-71
2023/04/09 02:55:30;;;;;;;90.40;64.67;;;;;;;9.08;100.00;103185.38;4996555;28;20186;-71
2023/04/09 02:57:56;;;;;;;85.33;64.17;;;;;;;8.32;100.00;103074.97;4996723;28;20189;-72
2023/04/09 03:00:21;;;;;;;98.37;63.70;;;;;;;8.83;100.00;103138.44;4999646;28;20200;-72
2023/04/09 03:02:46;;;;;;;94.53;65.93;;;;;;;9.05;100.00;103180.28;4994790;28;20545;-72
2023/04/09 03:05:12;;;;;;;90.80;65.73;;;;;;;8.51;100.00;103125.13;4998881;28;20177;-71
2023/04/09 03:07:37;;;;;;;92.37;64.30;;;;;;;8.61;100.00;103158.13;4990867;28;20356;-71
2023/04/09 03:10:03;;;;;;;87.07;66.17;;;;;;;8.21;100.00;103083.88;4990941;28;20695;-71
2023/04/09 03:12:28;;;;;;;94.37;68.00;;;;;;;8.41;100.00;103153.63;4993323;28;20190;-71
2023/04/09 03:14:54;;;;;;;86.77;62.70;;;;;;;8.96;100.00;103191.78;4983063;28;20181;-72
2023/04/09 03:17:19;;;;;;;91.03;67.10;;;;;;;8.86;100.00;103190.88;4991934;28;20600;-71
2023/04/09 03:19:45;;;;;;;89.70;62.40;;;;;;;8.72;100.00;103170.63;4989635;28;20220;-71
2023/04/09 03:22:10;;;;;;;87.00;65.40;;;;;;;8.74;100.00;103193.59;4993720;28;20204;-71
2023/04/09 03:24:36;;;;;;;86.43;66.10;;;;;;;8.90;100.00;103187.78;4993182;28;20836;-72
2023/04/09 03:27:01;;;;;;;93.03;68.20;;;;;;;8.70;100.00;103189.47;4994755;28;20636;-71
2023/04/09 03:29:27;;;;;;;84.67;64.20;;;;;;;8.88;100.00;103192.44;4979047;28;20193;-72
2023/04/09 03:31:52;;;;;;;84.20;63.30;;;;;;;8.68;100.00;103166.50;4977535;28;20186;-71
2023/04/09 03:34:17;;;;;;;84.17;63.90;;;;;;;8.38;100.00;103122.59;4991731;28;20614;-71
2023/04/09 03:36:43;;;;;;;92.23;66.23;;;;;;;8.68;100.00;103150.44;4992664;28;20271;-72
2023/04/09 03:39:08;;;;;;;85.30;64.43;;;;;;;8.58;100.00;103145.03;4995818;28;20199;-72
2023/04/09 03:41:34;;;;;;;87.53;65.10;;;;;;;8.06;100.00;103064.63;4994764;28;20192;-72
2023/04/09 03:43:59;;;;;;;88.43;65.60;;;;;;;8.68;100.00;103145.97;4992162;28;20636;-71
2023/04/09 03:46:25;;;;;;;90.03;64.60;;;;;;;8.80;100.00;103176.19;4997190;28;20213;-71
2023/04/09 03:48:50;;;;;;;94.73;65.93;;;;;;;8.80;100.00;103182.38;4975842;28;20181;-71
2023/04/09 03:51:17;;;;;;;83.47;62.73;;;;;;;8.75;100.00;103181.06;4990803;28;20228;-71
2023/04/09 03:53:42;;;;;;;89.40;64.67;;;;;;;8.23;100.00;103102.50;4989342;28;20259;-72
2023/04/09 03:56:09;;;;;;;86.80;62.93;;;;;;;8.74;100.00;103179.38;4975718;28;20949;-71
2023/04/09 03:58:34;;;;;;;89.50;64.67;;;;;;;8.82;100.00;103180.44;4975243;28;20705;-71
2023/04/09 04:01:00;;;;;;;83.43;61.67;;;;;;;8.13;100.00;103113.13;4997586;28;20468;-71
2023/04/09 04:03:26;;;;;;;91.90;64.20;;;;;;;8.58;100.00;103187.81;4992742;28;20223;-71
2023/04/09 04:05:51;;;;;;;97.43;67.63;;;;;;;8.03;100.00;103101.47;4996870;28;20189;-71
2023/04/09 04:08:17;;;;;;;88.10;63.10;;;;;;;8.53;100.00;103176.66;4993956;28;20217;-72
2023/04/09 04:10:42;;;;;;;81.77;59.90;;;;;;;8.00;100.00;103104.41;4996077;28;20215;-71
2023/04/09 04:13:08;;;;;;;85.37;62.80;;;;;;;8.46;100.00;103200.41;4981489;28;20189;-71
2023/04/09 04:15:40;;;;;;;86.43;61.33;;;;;;;8.07;100.00;103106.44;4981924;28;20199;-71
2023/04/09 04:18:05;;;;;;;86.90;62.07;;;;;;;8.44;100.00;103201.50;4978292;28;20864;-71
2023/04/09 04:20:35;;;;;;;84.37;59.83;;;;;;;7.97;100.00;103137.56;4983075;28;20500;-71
2023/04/09 04:23:00;;;;;;;80.87;58.50;;;;;;;7.32;100.00;103047.59;4980780;28;20178;-71
2023/04/09 04:25:26;;;;;;;81.43;60.70;;;;;;;7.87;100.00;103182.06;4981913;28;20424;-71
2023/04/09 04:27:51;;;;;;;82.37;60.10;;;;;;;7.73;100.00;103156.44;4998305;28;20201;-71
2023/04/09 04:30:17;;;;;;;82.07;58.23;;;;;;;8.02;100.00;103218.22;4981093;28;20723;-71
2023/04/09 04:32:42;;;;;;;89.77;62.90;;;;;;;7.55;100.00;103139.19;4994966;28;20570;-71
2023/04/09 04:35:08;;;;;;;82.33;59.13;;;;;;;8.02;100.00;103218.22;4995419;28;20213;-72
2023/04/09 04:37:33;;;;;;;86.67;60.27;;;;;;;7.77;100.00;103165.91;4994392;28;20651;-71
2023/04/09 04:40:03;;;;;;;84.80;61.33;;;;;;;8.20;100.00;103191.81;4993202;28;20222;-71
2023/04/09 04:42:28;;;;;;;80.67;57.93;;;;;;;7.57;100.00;103118.56;4979519;28;20610;-72
2023/04/09 04:44:54;;;;;;;84.80;60.17;;;;;;;8.19;100.00;103208.84;4990365;28;20487;-72
2023/04/09 04:47:19;;;;;;;82.70;57.73;;;;;;;7.69;100.00;103153.19;4971002;28;20714;-72
2023/04/09 04:49:44;;;;;;;81.60;60.73;;;;;;;8.35;100.00;103219.13;4981589;28;20214;-72
2023/04/09 04:52:10;;;;;;;80.37;60.30;;;;;;;8.53;100.00;103220.34;4988820;28;20656;-72
2023/04/09 04:54:35;;;;;;;83.60;59.27;;;;;;;8.36;100.00;103228.81;4980714;28;20194;-72
2023/04/09 04:57:01;;;;;;;80.20;59.37;;;;;;;7.46;100.00;103117.63;4978668;28;21022;-72
2023/04/09 04:59:27;;;;;;;87.10;59.10;;;;;;;7.81;100.00;103137.09;4987829;28;20190;-72
2023/04/09 05:01:52;;;;;;;82.50;60.30;;;;;;;7.89;100.00;103207.66;4967069;28;20193;-72
2023/04/09 05:04:18;;;;;;;79.37;56.30;;;;;;;7.65;100.00;103172.22;4990070;28;20192;-71
2023/04/09 05:06:43;;;;;;;76.47;55.67;;;;;;;7.87;100.00;103192.75;4970874;28;20825;-71
2023/04/09 05:09:08;;;;;;;81.40;55.83;;;;;;;8.05;100.00;103233.16;4981049;28;20193;-71
2023/04/09 05:11:34;;;;;;;83.97;59.30;;;;;;;8.08;100.00;103251.63;4984776;28;20190;-71
2023/04/09 05:13:59;;;;;;;79.30;55.00;;;;;;;8.12;100.00;103240.56;4983325;28;20189;-72
2023/04/09 05:16:25;;;;;;;78.53;57.17;;;;;;;7.84;100.00;103204.53;4984208;28;20201;-71
2023/04/09 05:18:51;;;;;;;76.27;55.67;;;;;;;8.04;100.00;103243.03;4966665;28;20727;-71
2023/04/09 05:21:16;;;;;;;81.63;56.63;;;;;;;8.08;100.00;103241.78;4981130;28;20472;-71
2023/04/09 05:23:42;;;;;;;81.50;58.27;;;;;;;8.11;100.00;103248.72;4985311;28;20631;-71
2023/04/09 05:26:07;;;;;;;77.30;56.20;;;;;;;7.96;100.00;103209.88;4984809;28;20201;-71
2023/04/09 05:28:33;;;;;;;82.63;57.50;;;;;;;7.71;100.00;103177.09;4986979;28;20290;-71
2023/04/09 05:30:58;;;;;;;75.60;53.90;;;;;;;7.87;100.00;103220.31;4983166;28;20220;-71
2023/04/09 05:33:24;;;;;;;79.10;56.90;;;;;;;7.80;100.00;103125.56;4986501;28;20200;-72
2023/04/09 05:35:49;;;;;;;76.50;54.73;;;;;;;8.12;100.00;103194.25;4989305;28;20188;-71
2023/04/09 05:38:15;;;;;;;76.50;56.37;;;;;;;8.42;100.00;103220.38;4970257;28;20608;-72
2023/04/09 05:40:41;;;;;;;75.23;53.40;;;;;;;7.65;100.00;103135.69;4967494;28;20235;-71
2023/04/09 05:43:07;;;;;;;77.17;54.03;;;;;;;8.12;100.00;103203.13;4979670;28;20217;-71
2023/04/09 05:45:32;;;;;;;78.00;55.30;;;;;;;7.93;100.00;103160.19;4988894;28;20492;-72
2023/04/09 05:47:57;;;;;;;77.00;53.83;;;;;;;8.27;100.00;103213.53;4977146;28;20217;-71
2023/04/09 05:50:23;;;;;;;80.90;54.90;;;;;;;7.91;100.00;103130.06;4990028;28;20628;-71
2023/04/09 05:52:48;;;;;;;73.40;55.30;;;;;;;7.86;100.00;103082.31;4991034;28;20196;-71
2023/04/09 05:55:14;;;;;;;71.90;51.70;;;;;;;8.29;100.00;103176.84;4994294;28;20185;-71
2023/04/09 05:57:40;;;;;;;72.70;54.13;;;;;;;7.97;100.00;103128.69;4981210;28;20178;-72
2023/04/09 06:00:07;;;;;;;70.50;52.23;;;;;;;8.53;100.00;103238.19;4976378;28;20205;-71
2023/04/09 06:02:32;;;;;;;72.17;51.70;;;;;;;8.80;100.00;103230.53;4975713;28;20461;-71
2023/04/09 06:04:58;;;;;;;73.50;51.67;;;;;;;8.65;100.00;103221.13;4978816;28;20443;-71
2023/04/09 06:07:23;;;;;;;65.67;48.10;;;;;;;8.66;100.00;103238.03;4994759;28;20208;-71
2023/04/09 06:09:49;;;;;;;66.73;50.00;;;;;;;8.57;100.00;103228.94;4987599;28;20668;-72
2023/04/09 06:12:15;;;;;;;73.73;51.57;;;;;;;8.55;100.00;103230.88;4969556;28;20193;-71
2023/04/09 06:14:40;;;;;;;70.93;48.33;;;;;;;8.11;100.00;103163.16;4991495;28;20222;-72
2023/04/09 06:17:06;;;;;;;68.73;47.97;;;;;;;8.06;100.00;103147.50;4990558;28;20440;-72
2023/04/09 06:19:31;;;;;;;69.00;49.00;;;;;;;8.54;100.00;103230.03;4993500;28;20585;-72
2023/04/09 06:21:57;;;;;;;68.43;45.77;;;;;;;8.57;100.00;103221.75;4993267;28;20204;-72
2023/04/09 06:24:22;;;;;;;68.13;48.80;;;;;;;8.51;100.00;103187.50;4991174;28;20296;-72
2023/04/09 06:26:48;;;;;;;68.90;46.10;;;;;;;8.09;100.00;103112.50;4971633;28;21220;-72
2023/04/09 06:29:13;;;;;;;64.73;45.23;;;;;;;8.75;100.00;103197.13;4996404;28;20248;-71
2023/04/09 06:31:39;;;;;;;72.37;50.90;;;;;;;8.72;100.00;103205.41;4998225;28;20193;-72
2023/04/09 06:34:04;;;;;;;66.47;49.00;;;;;;;8.18;100.00;103156.34;4991414;28;20216;-72
2023/04/09 06:36:30;;;;;;;71.70;50.40;;;;;;;8.68;100.00;103195.91;4967107;28;20264;-72
2023/04/09 06:38:55;;;;;;;73.20;50.27;;;;;;;8.95;100.00;103206.16;4973394;28;20189;-71
2023/04/09 06:41:22;;;;;;;71.10;50.30;;;;;;;8.67;100.00;103181.69;4991170;28;20208;-71
2023/04/09 06:43:48;;;;;;;70.30;49.50;;;;;;;8.85;100.00;103183.81;4980805;28;20196;-71
2023/04/09 06:46:16;;;;;;;71.13;48.90;;;;;;;8.34;100.00;103111.31;4982933;28;20448;-71
2023/04/09 06:48:43;;;;;;;67.63;49.63;;;;;;;8.90;100.00;103205.69;4991918;28;20445;-72
2023/04/09 06:51:10;;;;;;;65.47;46.00;;;;;;;9.00;100.00;103206.63;4972760;28;20456;-72
2023/04/09 06:53:36;;;;;;;64.03;43.87;;;;;;;8.75;100.00;103219.38;4986527;28;20472;-72
2023/04/09 06:56:01;;;;;;;53.07;38.90;;;;;;;8.68;100.00;103161.13;4986298;28;20440;-71
2023/04/09 06:58:27;;;;;;;52.57;41.60;;;;;;;9.07;100.00;103209.59;4975421;28;20454;-71
2023/04/09 07:00:55;;;;;;;56.80;39.93;;;;;;;8.68;100.00;103135.25;4991075;28;20233;-72
2023/04/09 07:03:21;;;;;;;59.33;39.47;;;;;;;9.21;100.00;103209.28;4993471;28;20185;-72
2023/04/09 07:05:47;;;;;;;53.53;39.13;;;;;;;9.27;100.00;103206.91;4992144;28;20475;-72
2023/04/09 07:08:13;;;;;;;57.23;40.27;;;;;;;9.06;100.00;103211.44;4974089;28;20205;-73
2023/04/09 07:10:38;;;;;;;60.33;40.40;;;;;;;8.55;100.00;103159.50;4987903;28;20470;-71
2023/04/09 07:13:04;;;;;;;52.13;37.90;;;;;;;9.02;100.00;103193.91;4988296;28;20813;-72
2023/04/09 07:15:29;;;;;;;54.20;37.73;;;;;;;9.26;100.00;103189.16;4988915;28;20185;-72
2023/04/09 07:17:56;;;;;;;52.43;36.20;;;;;;;9.24;100.00;103188.44;4993231;28;20240;-72
2023/04/09 07:20:21;;;;;;;43.20;31.17;;;;;;;9.00;100.00;103118.28;4984283;28;20224;-73
2023/04/09 07:22:47;;;;;;;37.53;27.10;;;;;;;9.32;100.00;103155.63;4971796;28;20444;-72
2023/04/09 07:25:14;;;;;;;39.03;28.80;;;;;;;8.88;100.00;103065.78;4969565;28;20194;-72
2023/04/09 07:27:39;;;;;;;46.80;28.87;;;;;;;8.94;100.00;103118.78;4971278;28;20208;-72
2023/04/09 07:30:05;;;;;;;36.67;27.63;;;;;;;9.08;100.00;103088.13;4988810;28;20470;-71
2023/04/09 07:32:31;;;;;;;42.10;31.20;;;;;;;9.01;100.00;103133.34;4987308;28;20177;-72
2023/04/09 07:34:58;;;;;;;39.43;29.93;;;;;;;8.96;100.00;103135.56;4975205;28;20572;-72
2023/04/09 07:37:24;;;;;;;38.17;28.30;;;;;;;8.79;100.00;103121.81;4965151;28;20181;-72
2023/04/09 07:39:50;;;;;;;39.30;29.13;;;;;;;8.14;100.00;103037.28;4988034;28;21202;-72
2023/04/09 07:42:15;;;;;;;43.17;30.53;;;;;;;8.53;100.00;103051.81;4965182;28;20467;-72
2023/04/09 07:44:41;;;;;;;37.10;26.63;;;;;;;8.53;100.00;103062.50;4986996;28;20666;-72
2023/04/09 07:47:07;;;;;;;38.80;29.00;;;;;;;8.03;100.00;102991.88;4979038;28;20236;-71
2023/04/09 07:49:35;;;;;;;38.93;27.80;;;;;;;9.06;100.00;103131.13;4976367;28;20564;-71
2023/04/09 07:52:00;;;;;;;37.73;28.87;;;;;;;8.72;100.00;103036.84;4991130;28;20443;-72
2023/04/09 07:54:27;;;;;;;38.23;27.93;;;;;;;9.45;100.00;103123.25;4986823;28;21223;-71
2023/04/09 07:56:52;;;;;;;36.10;27.97;;;;;;;8.72;100.00;103045.72;4988202;28;20228;-71
2023/04/09 07:59:17;;;;;;;36.90;27.30;;;;;;;9.28;100.00;103133.59;4992478;28;20436;-71
2023/04/09 08:01:43;;;;;;;38.73;26.83;;;;;;;8.71;100.00;103035.16;4988437;28;20248;-71
2023/04/09 08:04:09;;;;;;;32.47;23.93;;;;;;;9.32;100.00;103115.47;4984055;28;20186;-71
2023/04/09 08:06:35;;;;;;;31.57;24.53;;;;;;;9.27;100.00;103112.34;4984224;28;20185;-72
2023/04/09 08:09:01;;;;;;;31.43;23.80;;;;;;;8.97;100.00;103051.63;4987138;28;20459;-71
2023/04/09 08:11:27;;;;;;;35.97;25.50;;;;;;;9.11;100.00;103055.75;4990511;28;20994;-71
2023/04/09 08:13:53;;;;;;;30.63;23.10;;;;;;;8.80;100.00;103000.41;4994042;28;20524;-71
2023/04/09 08:16:20;;;;;;;30.13;21.37;;;;;;;9.42;100.00;103067.28;4991734;28;20201;-72
2023/04/09 08:18:46;;;;;;;29.33;23.37;;;;;;;8.97;100.00;102988.22;4995504;28;20444;-72
2023/04/09 08:21:11;;;;;;;29.00;23.37;;;;;;;9.44;100.00;103030.50;4997405;28;20803;-71
2023/04/09 08:23:37;;;;;;;32.93;24.20;;;;;;;9.08;100.00;103024.72;4996002;28;20423;-71
2023/04/09 08:26:02;;;;;;;30.63;23.20;;;;;;;9.17;100.00;103041.81;4994752;28;20304;-71
2023/04/09 08:28:28;;;;;;;31.00;23.07;;;;;;;9.09;100.00;103001.50;4994670;28;20260;-72
2023/04/09 08:30:53;;;;;;;26.80;20.00;;;;;;;8.91;100.00;102979.88;4995028;28;20197;-72
2023/04/09 08:33:19;;;;;;;31.50;23.10;;;;;;;8.89;100.00;102939.88;4981155;28;20186;-71
2023/04/09 08:35:44;;;;;;;26.70;21.20;;;;;;;9.64;100.00;103020.66;4997626;28;20547;-72
2023/04/09 08:38:10;;;;;;;26.70;20.80;;;;;;;9.72;100.00;103002.88;4994126;28;20181;-72
2023/04/09 08:40:36;;;;;;;30.17;22.80;;;;;;;9.20;100.00;102935.31;4982328;28;20252;-72
2023/04/09 08:43:05;;;;;;;27.40;21.00;;;;;;;9.15;100.00;102915.28;4999051;28;20193;-72
2023/04/09 08:45:31;;;;;;;26.43;20.03;;;;;;;9.78;100.00;102990.75;4982655;28;20445;-71
2023/04/09 08:48:01;;;;;;;27.80;20.77;;;;;;;9.63;100.00;102941.22;4998528;28;20455;-72
2023/04/09 08:50:28;;;;;;;22.90;18.63;;;;;;;9.86;100.00;102974.78;4981112;28;20212;-72
2023/04/09 08:52:54;;;;;;;25.50;19.47;;;;;;;9.82;100.00;102965.34;4981898;28;20436;-72
2023/04/09 08:55:21;;;;;;;25.67;20.67;;;;;;;10.14;100.00;102986.47;4982452;28;20523;-72
2023/04/09 08:57:46;;;;;;;29.53;22.13;;;;;;;9.94;100.00;102976.78;4995717;28;21030;-72
2023/04/09 09:00:12;;;;;;;27.33;21.90;;;;;;;9.95;100.00;102935.56;4982857;28;20475;-72
2023/04/09 09:02:38;;;;;;;28.40;21.40;;;;;;;9.90;100.00;102962.81;4992871;28;20185;-71
2023/04/09 09:05:04;;;;;;;28.93;23.10;;;;;;;9.84;100.00;102931.22;4981073;28;20247;-71
2023/04/09 09:07:30;;;;;;;28.40;21.30;;;;;;;10.41;100.00;102952.72;4996023;28;20965;-71
2023/04/09 09:09:58;;;;;;;23.00;18.60;;;;;;;10.13;100.00;102941.06;4980795;28;20214;-72
2023/04/09 09:12:38;;;;;;;22.40;17.97;;;;;;;9.93;100.00;102879.44;4996195;28;20498;-72
2023/04/09 09:15:23;;;;;;;22.93;18.20;;;;;;;10.34;100.00;102935.53;4994474;28;20432;-72
2023/04/09 09:17:54;;;;;;;28.20;18.73;;;;;;;10.44;100.00;102947.06;4995086;28;20421;-72
2023/04/09 09:20:20;;;;;;;23.47;17.90;;;;;;;10.53;100.00;102938.16;4978096;28;20530;-72
2023/04/09 09:22:53;;;;;;;24.63;18.30;;;;;;;10.65;100.00;102925.38;4996097;28;20424;-72
2023/04/09 09:25:23;;;;;;;20.77;16.97;;;;;;;10.77;100.00;102917.97;4993368;28;20432;-72
2023/04/09 09:27:49;;;;;;;23.63;18.70;;;;;;;10.65;100.00;102919.19;4981556;28;20459;-71
2023/04/09 09:30:22;;;;;;;21.20;16.73;;;;;;;10.74;100.00;102920.97;4982193;28;20444;-72
2023/04/09 09:33:03;;;;;;;23.83;19.30;;;;;;;10.42;100.00;102860.53;4995746;28;20428;-72
2023/04/09 09:35:29;;;;;;;22.40;17.27;;;;;;;10.23;100.00;102834.59;4964498;28;20862;-72
2023/04/09 09:38:03;;;;;;;22.17;17.20;;;;;;;10.32;100.00;102824.84;4995249;28;20421;-72
2023/04/09 09:40:30;;;;;;;19.20;16.20;;;;;;;11.20;100.00;102900.34;4981193;28;20212;-72
2023/04/09 09:42:56;;;;;;;22.00;16.90;;;;;;;10.89;100.00;102833.53;4982096;28;20506;-72
2023/04/09 09:45:23;;;;;;;20.43;16.53;;;;;;;11.25;100.00;102884.56;4997556;28;20428;-72
2023/04/09 09:47:48;;;;;;;22.17;17.03;;;;;;;10.87;100.00;102811.38;4995640;28;20479;-72
2023/04/09 09:50:14;;;;;;;20.27;16.20;;;;;;;11.32;100.00;102891.03;4999503;28;20448;-71
2023/04/09 09:52:43;;;;;;;20.50;16.20;;;;;;;11.34;100.00;102874.75;4997256;28;20180;-72
2023/04/09 09:55:12;;;;;;;19.93;16.33;;;;;;;10.97;100.00;102796.03;4999251;28;20273;-71
2023/04/09 09:57:41;;;;;;;22.60;17.50;;;;;;;10.91;100.00;102780.56;5001877;28;20413;-72
2023/04/09 10:00:07;;;;;;;22.67;17.07;;;;;;;11.49;100.00;102855.25;5002693;28;20454;-72
2023/04/09 10:02:57;;;;;;;20.77;15.80;;;;;;;11.52;100.00;102863.00;4997713;28;20447;-72
2023/04/09 10:05:25;;;;;;;20.20;15.97;;;;;;;11.85;100.00;102874.03;4984380;28;20428;-72
2023/04/09 10:07:54;;;;;;;20.90;15.30;;;;;;;11.99;100.00;102861.84;4985527;28;20472;-72
2023/04/09 10:10:21;;;;;;;21.47;17.40;;;;;;;11.52;100.00;102848.72;4999072;28;20871;-72
2023/04/09 10:12:47;;;;;;;21.00;15.93;;;;;;;10.86;100.00;102759.53;4983343;28;21006;-72
2023/04/09 10:15:13;;;;;;;17.00;15.20;;;;;;;11.02;100.00;102748.09;4997854;28;20424;-71
2023/04/09 10:17:38;;;;;;;23.87;17.23;;;;;;;11.49;100.00;102839.13;5000084;28;20440;-72
2023/04/09 10:20:18;;;;;;;22.77;17.67;;;;;;;11.39;100.00;102765.81;4999781;28;20750;-72
2023/04/09 10:22:48;;;;;;;21.07;17.20;;;;;;;11.97;100.00;102834.25;4997294;28;20269;-72
2023/04/09 10:25:14;;;;;;;20.67;15.90;;;;;;;11.94;100.00;102788.88;4999693;28;20416;-72
2023/04/09 10:27:43;;;;;;;17.23;14.30;;;;;;;11.99;100.00;102768.56;5000604;28;20495;-72
2023/04/09 10:30:09;;;;;;;22.10;17.50;;;;;;;12.31;100.00;102776.94;4997187;28;20446;-72
2023/04/09 10:32:35;;;;;;;23.90;16.57;;;;;;;12.31;100.00;102725.81;4984821;28;20861;-72
2023/04/09 10:35:02;;;;;;;22.23;17.97;;;;;;;12.49;100.00;102801.03;4982715;28;20552;-72
2023/04/09 10:37:28;;;;;;;23.23;18.80;;;;;;;12.11;100.00;102798.69;4966966;28;20456;-72
2023/04/09 10:39:55;;;;;;;25.83;19.80;;;;;;;11.76;100.00;102787.06;4985189;28;20453;-72
2023/04/09 10:42:34;;;;;;;21.40;17.43;;;;;;;11.79;100.00;102723.22;4983676;28;21001;-72
2023/04/09 10:45:10;;;;;;;22.97;18.30;;;;;;;12.07;100.00;102699.69;5001230;28;20443;-72
2023/04/09 10:47:41;;;;;;;22.50;18.10;;;;;;;12.10;100.00;102745.91;4997957;28;20467;-72
2023/04/09 10:50:37;;;;;;;25.93;21.77;;;;;;;11.84;100.00;102755.88;4984743;28;20451;-72
2023/04/09 10:53:03;;;;;;;22.80;19.27;;;;;;;12.05;100.00;102768.94;4964299;28;20432;-72
2023/04/09 10:55:33;;;;;;;21.90;18.07;;;;;;;12.36;100.00;102761.16;4996243;28;20425;-72
2023/04/09 10:57:58;;;;;;;21.20;18.13;;;;;;;12.07;100.00;102699.69;4998662;28;20475;-72
2023/04/09 11:00:24;;;;;;;23.60;17.50;;;;;;;12.27;100.00;102736.06;4997012;28;20452;-72
2023/04/09 11:03:01;;;;;;;21.87;18.40;;;;;;;12.51;100.00;102737.13;4999428;28;20182;-72
2023/04/09 11:05:38;;;;;;;23.97;18.60;;;;;;;12.81;100.00;102728.41;4997751;28;20251;-72
2023/04/09 11:08:11;;;;;;;21.70;18.17;;;;;;;12.40;100.00;102732.88;4998332;28;20690;-72